Winslow, Arkansas
Current Conditions -  °F | °C
As of 7:53 PM on Friday 19 Dec 2014 (Local Time) from KFYV Reporting Station
Overcast Overcast  
Wind Chill: 41°   Ceiling: 600
Heat Index: 41°   Visibility: 7mi
Dew Point: 41°   Wind: 3mph
Humidity: 100%   Direction: 180°S
Pressure: 30.19"   Gusts: NA
Location:  35.8°N, 94.13°W
Report Text: KFYV 200153Z AUTO 18003KT 7SM OVC006 05/05 A3019 RMK AO2 SLP225 T00500050
Loading
Personal Weather Stations






























Interactive Weather Map New forecast layout! Learn more

10-Day Weather Forecast

Advertisements
Track Severe Weather on mobile